Portada
METAR-TAF:

METAR-TAF

Aeroports :

Qurghonteppa, Tadjikistan

latitud: 37-51-44N, longitud: 068-51-46E, altitud: 449 m

Observació

L'informe es va fer fa 30 minuts, a les 16:00 UTC
Vent 6 kt del Est
Temperatura 1°C
Humitat 86%
Pressió 1025 hPa
Visibilitat: 2400 m
boirina

METAR: UTDT 251600Z 09003MPS 2400 BR NSC 01/M01 Q1025 R35/////// RMK QFE729/0972

Hora: 21:30 (16:30 UTC)

Pronòstic

L'informe es va fer fa 1 hora i 30 minuts, a les 15:00 UTC
Pronòstic vàlid del 25 a les 16 UTC al 26 a les 01 UTC
Vent 4 kt amb direcció variable
Visibilitat: 1500 m
Temporalment
l' 25 a les 19 UTC al 26 a les 01 UTC
Visibilitat: 0700 m
boira gebradora

TAF: UTDT 251500Z 2516/2601 VRB02MPS 1500 NSC TEMPO 2519/2601 0700 FZFG

Observacions i pronòstics meteorològics de més de 4000 aeroports (METAR i TAF).

Les estacions disponibles són els punts grocs i vermells al mapa.

Posi el ratolí al punt desitjat per veure el nom de l'estació.

Feu clic per veure les observacions i els pronòstics meteorològics.

Per canviar el mapa: feu clic els botons verds amb una creu de color negre per apropar; al botó verd amb un guió per allunyar la imatge; o en les fletxes verdes per a mapes adjacents.


METAR-TAF: